This is the latest recevied weather packets stored in our database for station/object OE6ACM-10. If no packets are shown the sender has not sent any weather packets the latest 10 day(s).
| Time | Temp. | Humidity | Pressure | Rain* | Wind** | Luminosity | Snow |
|---|---|---|---|---|---|---|---|
| 1777831179 | 31.67° C | 68% | 925.5 hPa | - | - | - | - |
| 1777830879 | 32.22° C | 67% | 925.5 hPa | - | - | - | - |
| 1777830579 | 32.22° C | 67% | 925.5 hPa | - | - | - | - |
| 1777830279 | 32.78° C | 65% | 925.5 hPa | - | - | - | - |
| 1777829979 | 32.78° C | 64% | 925.4 hPa | - | - | - | - |
| 1777829679 | 33.33° C | 62% | 925.4 hPa | - | - | - | - |
| 1777829379 | 33.89° C | 62% | 925.4 hPa | - | - | - | - |
| 1777829079 | 34.44° C | 60% | 925.3 hPa | - | - | - | - |
| 1777828779 | 35° C | 56% | 925.2 hPa | - | - | - | - |
| 1777828479 | 34.44° C | 59% | 925.2 hPa | - | - | - | - |
| 1777828179 | 35.56° C | 55% | 925.2 hPa | - | - | - | - |
| 1777827879 | 36.11° C | 51% | 925.1 hPa | - | - | - | - |
| 1777827579 | 36.67° C | 53% | 925.1 hPa | - | - | - | - |
| 1777827279 | 37.22° C | 51% | 925.1 hPa | - | - | - | - |
| 1777826979 | 37.22° C | 50% | 925.1 hPa | - | - | - | - |
| 1777826679 | 37.22° C | 49% | 925 hPa | - | - | - | - |
| 1777826379 | 37.22° C | 51% | 925 hPa | - | - | - | - |
| 1777826079 | 36.67° C | 51% | 924.9 hPa | - | - | - | - |
| 1777825779 | 37.22° C | 48% | 925 hPa | - | - | - | - |
| 1777825479 | 38.33° C | 43% | 925 hPa | - | - | - | - |
| 1777825179 | 38.33° C | 43% | 924.9 hPa | - | - | - | - |
| 1777824879 | 38.33° C | 43% | 924.9 hPa | - | - | - | - |
| 1777824579 | 38.89° C | 42% | 924.9 hPa | - | - | - | - |
| 1777824279 | 40° C | 39% | 924.8 hPa | - | - | - | - |
| 1777823979 | 41.11° C | 38% | 924.9 hPa | - | - | - | - |
* Rain since midnight (hover to see other rain measurements)
** Current wind speed in m/s (hover to see current wind gust speed)